Friday, October 19, 2018, 12:20 PM GMT
Back to Local

CWQO, Ile Bicquette, Que.

Location: , , Canada Lat: 48.416
Local Time: 12:20 PM GMT (12:20 GMT) Lon: -68.893
Time Zone: GMT Elev: 22 ft

Show me the last for .
Show Coded

Time T Td Feel RH Dir Speed Gust Alt SLP Vis Weather Sky Remarks
2018-10-19 12:00 30 16 22 54 240° 9 - - - 0 None
2018-10-19 11:00 29 18 23 61 230° 7 - - - 0 None
2018-10-19 10:00 31 19 23 60 270° 9 - - - 0 None
2018-10-19 09:00 31 19 23 60 300° 9 - - - 0 None
2018-10-19 08:00 30 19 20 63 300° 13 - - - 0 Peak wind: 21 mph (19 kts) from 300° at 05 min
2018-10-19 07:00 31 20 19 62 300° 18 - - - 0 Peak wind: 25 mph (22 kts) from 300° at 29 min
2018-10-19 06:00 31 22 19 68 300° 20 - - - 0 Peak wind: 26 mph (23 kts) from 290° at 24 min
2018-10-19 05:00 32 21 19 63 290° 23 - - - 0 Peak wind: 29 mph (26 kts) from 290° at 34 min
2018-10-19 04:00 32 21 18 65 290° 24 - - - 0 Peak wind: 31 mph (27 kts) from 290° at 10 min
2018-10-19 03:00 33 23 21 64 290° 24 - - - 0 Peak wind: 29 mph (26 kts) from 300° at 21 min
2018-10-19 02:00 34 22 21 60 290° 24 - - - 0 Peak wind: 32 mph (28 kts) from 300° at 13 min
2018-10-19 01:00 34 23 22 63 290° 25 - - - 0 Peak wind: 33 mph (29 kts) from 290° at 35 min
2018-10-19 00:00 35 23 21 60 300° 26 32 - - 0 Peak wind: 35 mph (31 kts) from 300° at 47 min
2018-10-18 23:00 36 24 23 62 290° 28 - - - 0 Peak wind: 32 mph (28 kts) from 290° at 06 min
2018-10-18 22:00 37 24 25 58 290° 26 - - - 0 Peak wind: 33 mph (29 kts) from 300° at 40 min
2018-10-18 21:00 38 22 26 52 300° 29 - - - 0 Peak wind: 37 mph (33 kts) from 290° at 06 min
2018-10-18 20:00 39 26 27 59 290° 30 - - - 0 Peak wind: 35 mph (31 kts) from 290° at 30 min
2018-10-18 19:00 39 24 26 55 290° 26 33 - - 0 Peak wind: 34 mph (30 kts) from 300° at 01 min
2018-10-18 18:00 39 24 26 53 300° 28 35 - - 0 Peak wind: 41 mph (36 kts) from 300° at 25 min
2018-10-18 17:00 37 26 23 62 290° 33 39 - - 0 Peak wind: 39 mph (34 kts) from 290° at 53 min
2018-10-18 16:00 37 25 24 60 310° 31 37 - - 0 Peak wind: 37 mph (33 kts) from 310° at 06 min
2018-10-18 15:00 37 24 23 59 310° 32 39 - - 0 Peak wind: 39 mph (34 kts) from 320° at 53 min
2018-10-18 14:00 36 26 23 65 300° 26 33 - - 0 Peak wind: 39 mph (34 kts) from 300° at 05 min
2018-10-18 13:00 36 24 21 63 300° 32 40 - - 0 Peak wind: 40 mph (35 kts) from 290° at 53 min

Support USWX by starting your Amazon purchase here.